sensor_id;sensor_type;location;lat;lon;timestamp;P1;durP1;ratioP1;P2;durP2;ratioP2
19285;SDS011;9776;50.798;6.430;2024-03-08T00:01:00;23.80;;;13.38;;
19285;SDS011;9776;50.798;6.430;2024-03-08T00:03:27;22.15;;;13.18;;
19285;SDS011;9776;50.798;6.430;2024-03-08T00:05:55;23.38;;;12.90;;
19285;SDS011;9776;50.798;6.430;2024-03-08T00:08:22;23.17;;;13.18;;
19285;SDS011;9776;50.798;6.430;2024-03-08T00:10:50;20.83;;;12.77;;
19285;SDS011;9776;50.798;6.430;2024-03-08T00:13:17;24.98;;;12.93;;
19285;SDS011;9776;50.798;6.430;2024-03-08T00:15:45;23.92;;;13.77;;
19285;SDS011;9776;50.798;6.430;2024-03-08T00:18:13;27.60;;;13.23;;
19285;SDS011;9776;50.798;6.430;2024-03-08T00:20:40;23.02;;;12.90;;
19285;SDS011;9776;50.798;6.430;2024-03-08T00:23:07;21.65;;;12.90;;
19285;SDS011;9776;50.798;6.430;2024-03-08T00:25:36;24.10;;;13.57;;
19285;SDS011;9776;50.798;6.430;2024-03-08T00:28:04;23.20;;;13.52;;
19285;SDS011;9776;50.798;6.430;2024-03-08T00:30:31;23.48;;;13.77;;
19285;SDS011;9776;50.798;6.430;2024-03-08T00:32:59;21.67;;;12.60;;
19285;SDS011;9776;50.798;6.430;2024-03-08T00:35:27;22.42;;;13.35;;
19285;SDS011;9776;50.798;6.430;2024-03-08T00:37:53;23.17;;;13.10;;
19285;SDS011;9776;50.798;6.430;2024-03-08T00:40:21;27.83;;;13.05;;
19285;SDS011;9776;50.798;6.430;2024-03-08T00:42:49;22.42;;;13.77;;
19285;SDS011;9776;50.798;6.430;2024-03-08T00:45:15;24.77;;;13.48;;
19285;SDS011;9776;50.798;6.430;2024-03-08T00:47:42;25.00;;;13.02;;
19285;SDS011;9776;50.798;6.430;2024-03-08T00:50:11;24.10;;;13.30;;
19285;SDS011;9776;50.798;6.430;2024-03-08T00:52:39;25.98;;;13.05;;
19285;SDS011;9776;50.798;6.430;2024-03-08T00:55:06;22.90;;;12.45;;
19285;SDS011;9776;50.798;6.430;2024-03-08T00:57:35;22.05;;;12.25;;
19285;SDS011;9776;50.798;6.430;2024-03-08T01:00:04;23.67;;;13.48;;
19285;SDS011;9776;50.798;6.430;2024-03-08T01:02:34;22.60;;;13.40;;
19285;SDS011;9776;50.798;6.430;2024-03-08T01:05:01;24.73;;;13.30;;
19285;SDS011;9776;50.798;6.430;2024-03-08T01:07:30;25.88;;;13.07;;
19285;SDS011;9776;50.798;6.430;2024-03-08T01:09:57;21.02;;;12.57;;
19285;SDS011;9776;50.798;6.430;2024-03-08T01:12:24;24.05;;;12.95;;
19285;SDS011;9776;50.798;6.430;2024-03-08T01:14:51;23.75;;;13.20;;
19285;SDS011;9776;50.798;6.430;2024-03-08T01:17:18;22.67;;;12.65;;
19285;SDS011;9776;50.798;6.430;2024-03-08T01:19:44;21.10;;;12.48;;
19285;SDS011;9776;50.798;6.430;2024-03-08T01:22:11;21.52;;;12.60;;
19285;SDS011;9776;50.798;6.430;2024-03-08T01:24:40;23.08;;;13.48;;
19285;SDS011;9776;50.798;6.430;2024-03-08T01:27:07;23.95;;;13.40;;
19285;SDS011;9776;50.798;6.430;2024-03-08T01:29:35;21.65;;;11.85;;
19285;SDS011;9776;50.798;6.430;2024-03-08T01:32:02;25.15;;;13.48;;
19285;SDS011;9776;50.798;6.430;2024-03-08T01:34:33;23.73;;;12.80;;
19285;SDS011;9776;50.798;6.430;2024-03-08T01:37:00;24.75;;;13.10;;
19285;SDS011;9776;50.798;6.430;2024-03-08T01:39:27;23.85;;;13.30;;
19285;SDS011;9776;50.798;6.430;2024-03-08T01:41:55;23.90;;;13.07;;
19285;SDS011;9776;50.798;6.430;2024-03-08T01:44:22;24.17;;;12.77;;
19285;SDS011;9776;50.798;6.430;2024-03-08T01:46:49;28.42;;;13.50;;
19285;SDS011;9776;50.798;6.430;2024-03-08T01:49:19;22.65;;;12.43;;
19285;SDS011;9776;50.798;6.430;2024-03-08T01:51:49;23.52;;;13.82;;
19285;SDS011;9776;50.798;6.430;2024-03-08T01:54:16;23.23;;;12.43;;
19285;SDS011;9776;50.798;6.430;2024-03-08T01:56:45;22.80;;;12.40;;
19285;SDS011;9776;50.798;6.430;2024-03-08T01:59:16;25.30;;;13.18;;
19285;SDS011;9776;50.798;6.430;2024-03-08T02:01:44;21.20;;;12.65;;
19285;SDS011;9776;50.798;6.430;2024-03-08T02:04:11;21.83;;;12.85;;
19285;SDS011;9776;50.798;6.430;2024-03-08T02:06:38;25.90;;;14.10;;
19285;SDS011;9776;50.798;6.430;2024-03-08T02:09:05;23.35;;;12.73;;
19285;SDS011;9776;50.798;6.430;2024-03-08T02:11:32;24.92;;;13.32;;
19285;SDS011;9776;50.798;6.430;2024-03-08T02:14:01;25.60;;;12.95;;
19285;SDS011;9776;50.798;6.430;2024-03-08T02:16:30;25.63;;;12.57;;
19285;SDS011;9776;50.798;6.430;2024-03-08T02:18:58;23.50;;;12.57;;
19285;SDS011;9776;50.798;6.430;2024-03-08T02:21:27;25.23;;;13.05;;
19285;SDS011;9776;50.798;6.430;2024-03-08T02:23:54;24.70;;;12.85;;
19285;SDS011;9776;50.798;6.430;2024-03-08T02:26:22;23.27;;;12.80;;
19285;SDS011;9776;50.798;6.430;2024-03-08T02:28:49;23.50;;;13.88;;
19285;SDS011;9776;50.798;6.430;2024-03-08T02:31:16;25.60;;;12.38;;
19285;SDS011;9776;50.798;6.430;2024-03-08T02:33:43;24.35;;;13.02;;
19285;SDS011;9776;50.798;6.430;2024-03-08T02:36:12;24.52;;;12.90;;
19285;SDS011;9776;50.798;6.430;2024-03-08T02:38:41;23.55;;;13.18;;
19285;SDS011;9776;50.798;6.430;2024-03-08T02:41:08;24.95;;;13.32;;
19285;SDS011;9776;50.798;6.430;2024-03-08T02:43:35;23.20;;;13.43;;
19285;SDS011;9776;50.798;6.430;2024-03-08T02:46:03;22.60;;;12.43;;
19285;SDS011;9776;50.798;6.430;2024-03-08T02:48:30;23.08;;;12.88;;
19285;SDS011;9776;50.798;6.430;2024-03-08T02:50:57;22.88;;;12.27;;
19285;SDS011;9776;50.798;6.430;2024-03-08T02:53:24;25.38;;;13.20;;
19285;SDS011;9776;50.798;6.430;2024-03-08T02:55:53;24.08;;;13.00;;
19285;SDS011;9776;50.798;6.430;2024-03-08T02:58:20;24.13;;;13.07;;
19285;SDS011;9776;50.798;6.430;2024-03-08T03:00:47;23.05;;;12.82;;
19285;SDS011;9776;50.798;6.430;2024-03-08T03:03:14;25.20;;;13.20;;
19285;SDS011;9776;50.798;6.430;2024-03-08T03:05:41;22.60;;;12.13;;
19285;SDS011;9776;50.798;6.430;2024-03-08T03:08:09;23.20;;;12.68;;
19285;SDS011;9776;50.798;6.430;2024-03-08T03:10:37;23.65;;;12.93;;
19285;SDS011;9776;50.798;6.430;2024-03-08T03:13:05;27.58;;;12.40;;
19285;SDS011;9776;50.798;6.430;2024-03-08T03:15:33;21.80;;;12.38;;
19285;SDS011;9776;50.798;6.430;2024-03-08T03:18:01;25.85;;;13.10;;
19285;SDS011;9776;50.798;6.430;2024-03-08T03:20:29;25.48;;;13.77;;
19285;SDS011;9776;50.798;6.430;2024-03-08T03:22:57;22.83;;;12.77;;
19285;SDS011;9776;50.798;6.430;2024-03-08T03:25:26;23.13;;;12.88;;
19285;SDS011;9776;50.798;6.430;2024-03-08T03:27:59;24.65;;;13.48;;
19285;SDS011;9776;50.798;6.430;2024-03-08T03:30:27;22.38;;;12.93;;
19285;SDS011;9776;50.798;6.430;2024-03-08T03:32:58;22.65;;;12.63;;
19285;SDS011;9776;50.798;6.430;2024-03-08T03:35:26;24.33;;;13.40;;
19285;SDS011;9776;50.798;6.430;2024-03-08T03:37:54;24.42;;;13.15;;
19285;SDS011;9776;50.798;6.430;2024-03-08T03:40:38;25.63;;;12.40;;
19285;SDS011;9776;50.798;6.430;2024-03-08T03:43:06;23.45;;;12.38;;
19285;SDS011;9776;50.798;6.430;2024-03-08T03:45:36;24.38;;;12.57;;
19285;SDS011;9776;50.798;6.430;2024-03-08T03:48:03;25.55;;;12.85;;
19285;SDS011;9776;50.798;6.430;2024-03-08T03:50:31;24.15;;;12.13;;
19285;SDS011;9776;50.798;6.430;2024-03-08T03:52:59;26.63;;;13.07;;
19285;SDS011;9776;50.798;6.430;2024-03-08T03:55:27;24.23;;;12.82;;
19285;SDS011;9776;50.798;6.430;2024-03-08T03:57:54;23.20;;;12.68;;
19285;SDS011;9776;50.798;6.430;2024-03-08T04:00:21;25.10;;;13.48;;
19285;SDS011;9776;50.798;6.430;2024-03-08T04:02:49;21.85;;;11.98;;
19285;SDS011;9776;50.798;6.430;2024-03-08T04:05:16;25.00;;;12.32;;
19285;SDS011;9776;50.798;6.430;2024-03-08T04:07:43;23.20;;;13.13;;
19285;SDS011;9776;50.798;6.430;2024-03-08T04:10:10;24.75;;;12.93;;
19285;SDS011;9776;50.798;6.430;2024-03-08T04:12:38;25.50;;;12.90;;
19285;SDS011;9776;50.798;6.430;2024-03-08T04:15:05;22.70;;;12.75;;
19285;SDS011;9776;50.798;6.430;2024-03-08T04:17:33;26.08;;;12.80;;
19285;SDS011;9776;50.798;6.430;2024-03-08T04:20:04;26.10;;;13.40;;
19285;SDS011;9776;50.798;6.430;2024-03-08T04:22:34;23.50;;;12.77;;
19285;SDS011;9776;50.798;6.430;2024-03-08T04:25:01;25.67;;;13.17;;
19285;SDS011;9776;50.798;6.430;2024-03-08T04:27:29;26.50;;;13.55;;
19285;SDS011;9776;50.798;6.430;2024-03-08T04:29:55;26.05;;;13.43;;
19285;SDS011;9776;50.798;6.430;2024-03-08T04:32:23;25.05;;;12.48;;
19285;SDS011;9776;50.798;6.430;2024-03-08T04:34:50;23.67;;;12.70;;
19285;SDS011;9776;50.798;6.430;2024-03-08T04:37:18;25.83;;;13.65;;
19285;SDS011;9776;50.798;6.430;2024-03-08T04:39:47;27.25;;;13.80;;
19285;SDS011;9776;50.798;6.430;2024-03-08T04:42:14;25.57;;;13.70;;
19285;SDS011;9776;50.798;6.430;2024-03-08T04:44:43;23.77;;;12.82;;
19285;SDS011;9776;50.798;6.430;2024-03-08T04:47:10;25.47;;;14.03;;
19285;SDS011;9776;50.798;6.430;2024-03-08T04:49:37;28.53;;;14.00;;
19285;SDS011;9776;50.798;6.430;2024-03-08T04:52:04;24.43;;;13.07;;
19285;SDS011;9776;50.798;6.430;2024-03-08T04:54:33;24.33;;;12.52;;
19285;SDS011;9776;50.798;6.430;2024-03-08T04:57:00;22.48;;;12.30;;
19285;SDS011;9776;50.798;6.430;2024-03-08T04:59:27;24.40;;;13.27;;
19285;SDS011;9776;50.798;6.430;2024-03-08T05:01:54;24.60;;;12.48;;
19285;SDS011;9776;50.798;6.430;2024-03-08T05:04:21;27.80;;;13.57;;
19285;SDS011;9776;50.798;6.430;2024-03-08T05:06:48;24.92;;;12.63;;
19285;SDS011;9776;50.798;6.430;2024-03-08T05:09:15;25.93;;;13.00;;
19285;SDS011;9776;50.798;6.430;2024-03-08T05:11:45;27.23;;;12.60;;
19285;SDS011;9776;50.798;6.430;2024-03-08T05:14:13;24.43;;;12.23;;
19285;SDS011;9776;50.798;6.430;2024-03-08T05:16:42;26.30;;;12.93;;
19285;SDS011;9776;50.798;6.430;2024-03-08T05:19:09;24.23;;;11.73;;
19285;SDS011;9776;50.798;6.430;2024-03-08T05:21:36;26.50;;;13.17;;
19285;SDS011;9776;50.798;6.430;2024-03-08T05:24:04;27.07;;;13.03;;
19285;SDS011;9776;50.798;6.430;2024-03-08T05:26:31;26.03;;;13.23;;
19285;SDS011;9776;50.798;6.430;2024-03-08T05:29:00;26.63;;;13.40;;
19285;SDS011;9776;50.798;6.430;2024-03-08T05:31:28;25.23;;;13.67;;
19285;SDS011;9776;50.798;6.430;2024-03-08T05:33:57;28.37;;;13.83;;
19285;SDS011;9776;50.798;6.430;2024-03-08T05:36:24;27.43;;;13.40;;
19285;SDS011;9776;50.798;6.430;2024-03-08T05:38:51;25.47;;;12.80;;
19285;SDS011;9776;50.798;6.430;2024-03-08T05:41:19;24.57;;;13.03;;
19285;SDS011;9776;50.798;6.430;2024-03-08T05:43:46;24.33;;;12.57;;
19285;SDS011;9776;50.798;6.430;2024-03-08T05:46:16;25.50;;;13.10;;
19285;SDS011;9776;50.798;6.430;2024-03-08T05:48:44;28.38;;;13.30;;
19285;SDS011;9776;50.798;6.430;2024-03-08T05:51:12;25.33;;;12.80;;
19285;SDS011;9776;50.798;6.430;2024-03-08T05:53:38;24.40;;;12.87;;
19285;SDS011;9776;50.798;6.430;2024-03-08T05:56:06;28.47;;;13.60;;
19285;SDS011;9776;50.798;6.430;2024-03-08T05:58:34;26.27;;;12.67;;
19285;SDS011;9776;50.798;6.430;2024-03-08T06:01:01;27.47;;;13.30;;
19285;SDS011;9776;50.798;6.430;2024-03-08T06:03:34;28.37;;;13.90;;
19285;SDS011;9776;50.798;6.430;2024-03-08T06:06:01;23.67;;;12.53;;
19285;SDS011;9776;50.798;6.430;2024-03-08T06:08:28;26.00;;;13.57;;
19285;SDS011;9776;50.798;6.430;2024-03-08T06:10:56;26.13;;;13.77;;
19285;SDS011;9776;50.798;6.430;2024-03-08T06:13:24;26.58;;;13.60;;
19285;SDS011;9776;50.798;6.430;2024-03-08T06:15:51;27.60;;;13.47;;
19285;SDS011;9776;50.798;6.430;2024-03-08T06:18:19;27.73;;;13.17;;
19285;SDS011;9776;50.798;6.430;2024-03-08T06:20:47;26.73;;;13.53;;
19285;SDS011;9776;50.798;6.430;2024-03-08T06:23:15;25.60;;;13.23;;
19285;SDS011;9776;50.798;6.430;2024-03-08T06:25:42;25.55;;;12.82;;
19285;SDS011;9776;50.798;6.430;2024-03-08T06:28:09;27.70;;;13.13;;
19285;SDS011;9776;50.798;6.430;2024-03-08T06:30:37;25.33;;;13.27;;
19285;SDS011;9776;50.798;6.430;2024-03-08T06:33:04;24.90;;;12.90;;
19285;SDS011;9776;50.798;6.430;2024-03-08T06:35:32;27.60;;;12.60;;
19285;SDS011;9776;50.798;6.430;2024-03-08T06:38:04;25.03;;;12.47;;
19285;SDS011;9776;50.798;6.430;2024-03-08T06:40:31;24.03;;;12.43;;
19285;SDS011;9776;50.798;6.430;2024-03-08T06:42:58;27.20;;;13.90;;
19285;SDS011;9776;50.798;6.430;2024-03-08T06:45:24;25.33;;;12.83;;
19285;SDS011;9776;50.798;6.430;2024-03-08T06:47:51;29.90;;;14.07;;
19285;SDS011;9776;50.798;6.430;2024-03-08T06:50:20;27.87;;;13.43;;
19285;SDS011;9776;50.798;6.430;2024-03-08T06:52:46;27.40;;;13.80;;
19285;SDS011;9776;50.798;6.430;2024-03-08T06:55:20;26.80;;;13.00;;
19285;SDS011;9776;50.798;6.430;2024-03-08T06:57:47;30.73;;;14.30;;
19285;SDS011;9776;50.798;6.430;2024-03-08T07:00:15;26.57;;;13.83;;
19285;SDS011;9776;50.798;6.430;2024-03-08T07:02:45;25.90;;;12.37;;
19285;SDS011;9776;50.798;6.430;2024-03-08T07:05:13;28.10;;;13.50;;
19285;SDS011;9776;50.798;6.430;2024-03-08T07:07:42;29.00;;;13.52;;
19285;SDS011;9776;50.798;6.430;2024-03-08T07:10:14;29.27;;;13.87;;
19285;SDS011;9776;50.798;6.430;2024-03-08T07:16:14;26.60;;;12.43;;
19285;SDS011;9776;50.798;6.430;2024-03-08T07:18:42;26.17;;;13.75;;
19285;SDS011;9776;50.798;6.430;2024-03-08T07:21:09;31.42;;;13.52;;
19285;SDS011;9776;50.798;6.430;2024-03-08T07:23:37;30.00;;;13.73;;
19285;SDS011;9776;50.798;6.430;2024-03-08T07:26:27;28.50;;;13.98;;
19285;SDS011;9776;50.798;6.430;2024-03-08T07:28:55;26.52;;;13.75;;
19285;SDS011;9776;50.798;6.430;2024-03-08T07:31:25;28.50;;;13.73;;
19285;SDS011;9776;50.798;6.430;2024-03-08T07:34:03;26.50;;;13.80;;
19285;SDS011;9776;50.798;6.430;2024-03-08T07:36:32;24.33;;;13.03;;
19285;SDS011;9776;50.798;6.430;2024-03-08T07:39:00;28.47;;;14.93;;
19285;SDS011;9776;50.798;6.430;2024-03-08T07:41:27;26.45;;;12.80;;
19285;SDS011;9776;50.798;6.430;2024-03-08T07:43:55;26.13;;;13.00;;
19285;SDS011;9776;50.798;6.430;2024-03-08T07:46:22;27.23;;;13.45;;
19285;SDS011;9776;50.798;6.430;2024-03-08T07:48:51;25.27;;;13.45;;
19285;SDS011;9776;50.798;6.430;2024-03-08T07:51:18;24.67;;;13.05;;
19285;SDS011;9776;50.798;6.430;2024-03-08T07:53:46;27.45;;;13.52;;
19285;SDS011;9776;50.798;6.430;2024-03-08T07:56:13;28.15;;;13.85;;
19285;SDS011;9776;50.798;6.430;2024-03-08T07:58:43;26.52;;;13.32;;
19285;SDS011;9776;50.798;6.430;2024-03-08T08:01:15;27.00;;;13.45;;
19285;SDS011;9776;50.798;6.430;2024-03-08T08:03:43;27.90;;;13.95;;
19285;SDS011;9776;50.798;6.430;2024-03-08T08:06:11;25.30;;;14.23;;
19285;SDS011;9776;50.798;6.430;2024-03-08T08:08:41;25.45;;;13.20;;
19285;SDS011;9776;50.798;6.430;2024-03-08T08:11:08;23.13;;;11.75;;
19285;SDS011;9776;50.798;6.430;2024-03-08T08:13:36;25.73;;;13.48;;
19285;SDS011;9776;50.798;6.430;2024-03-08T08:16:04;26.25;;;13.07;;
19285;SDS011;9776;50.798;6.430;2024-03-08T08:18:32;27.70;;;13.40;;
19285;SDS011;9776;50.798;6.430;2024-03-08T08:21:00;25.40;;;12.90;;
19285;SDS011;9776;50.798;6.430;2024-03-08T08:23:28;26.85;;;13.52;;
19285;SDS011;9776;50.798;6.430;2024-03-08T08:25:56;24.08;;;12.73;;
19285;SDS011;9776;50.798;6.430;2024-03-08T08:28:23;25.70;;;13.18;;
19285;SDS011;9776;50.798;6.430;2024-03-08T08:30:50;25.80;;;11.57;;
19285;SDS011;9776;50.798;6.430;2024-03-08T08:33:17;26.80;;;13.57;;
19285;SDS011;9776;50.798;6.430;2024-03-08T08:35:44;26.30;;;13.45;;
19285;SDS011;9776;50.798;6.430;2024-03-08T08:38:12;24.15;;;13.32;;
19285;SDS011;9776;50.798;6.430;2024-03-08T08:40:42;26.75;;;13.38;;
19285;SDS011;9776;50.798;6.430;2024-03-08T08:43:09;24.33;;;12.60;;
19285;SDS011;9776;50.798;6.430;2024-03-08T08:45:36;24.38;;;12.73;;
19285;SDS011;9776;50.798;6.430;2024-03-08T08:48:04;23.02;;;11.82;;
19285;SDS011;9776;50.798;6.430;2024-03-08T08:50:31;25.75;;;12.75;;
19285;SDS011;9776;50.798;6.430;2024-03-08T08:52:58;24.58;;;12.40;;
19285;SDS011;9776;50.798;6.430;2024-03-08T08:55:26;29.67;;;13.63;;
19285;SDS011;9776;50.798;6.430;2024-03-08T08:57:54;27.70;;;13.82;;
19285;SDS011;9776;50.798;6.430;2024-03-08T09:00:22;25.30;;;12.82;;
19285;SDS011;9776;50.798;6.430;2024-03-08T09:02:52;24.10;;;12.63;;
19285;SDS011;9776;50.798;6.430;2024-03-08T09:05:20;27.25;;;12.50;;
19285;SDS011;9776;50.798;6.430;2024-03-08T09:07:49;24.67;;;12.65;;
19285;SDS011;9776;50.798;6.430;2024-03-08T09:10:16;21.95;;;12.30;;
19285;SDS011;9776;50.798;6.430;2024-03-08T09:12:44;24.95;;;12.27;;
19285;SDS011;9776;50.798;6.430;2024-03-08T09:15:12;21.65;;;11.98;;
19285;SDS011;9776;50.798;6.430;2024-03-08T09:17:40;19.85;;;11.27;;
19285;SDS011;9776;50.798;6.430;2024-03-08T09:20:09;21.08;;;12.27;;
19285;SDS011;9776;50.798;6.430;2024-03-08T09:22:39;19.85;;;12.25;;
19285;SDS011;9776;50.798;6.430;2024-03-08T09:25:07;22.67;;;12.43;;
19285;SDS011;9776;50.798;6.430;2024-03-08T09:27:35;21.02;;;11.73;;
19285;SDS011;9776;50.798;6.430;2024-03-08T09:30:02;20.63;;;12.15;;
19285;SDS011;9776;50.798;6.430;2024-03-08T09:32:33;17.70;;;11.48;;
19285;SDS011;9776;50.798;6.430;2024-03-08T09:35:02;18.13;;;11.82;;
19285;SDS011;9776;50.798;6.430;2024-03-08T09:37:32;18.77;;;12.02;;
19285;SDS011;9776;50.798;6.430;2024-03-08T09:39:59;21.58;;;12.25;;
19285;SDS011;9776;50.798;6.430;2024-03-08T09:42:30;19.27;;;11.80;;
19285;SDS011;9776;50.798;6.430;2024-03-08T09:44:57;18.08;;;11.32;;
19285;SDS011;9776;50.798;6.430;2024-03-08T09:47:25;17.10;;;10.88;;
19285;SDS011;9776;50.798;6.430;2024-03-08T09:50:00;19.02;;;11.48;;
19285;SDS011;9776;50.798;6.430;2024-03-08T09:52:27;16.85;;;10.63;;
19285;SDS011;9776;50.798;6.430;2024-03-08T09:54:59;17.52;;;11.55;;
19285;SDS011;9776;50.798;6.430;2024-03-08T09:57:27;18.77;;;11.18;;
19285;SDS011;9776;50.798;6.430;2024-03-08T09:59:54;17.08;;;11.10;;
19285;SDS011;9776;50.798;6.430;2024-03-08T10:02:22;20.13;;;11.52;;
19285;SDS011;9776;50.798;6.430;2024-03-08T10:04:49;16.63;;;10.73;;
19285;SDS011;9776;50.798;6.430;2024-03-08T10:07:21;17.98;;;10.70;;
19285;SDS011;9776;50.798;6.430;2024-03-08T10:09:48;16.73;;;10.90;;
19285;SDS011;9776;50.798;6.430;2024-03-08T10:12:18;16.73;;;10.88;;
19285;SDS011;9776;50.798;6.430;2024-03-08T10:14:46;17.67;;;10.70;;
19285;SDS011;9776;50.798;6.430;2024-03-08T10:17:13;18.40;;;11.10;;
19285;SDS011;9776;50.798;6.430;2024-03-08T10:19:48;17.35;;;10.63;;
19285;SDS011;9776;50.798;6.430;2024-03-08T10:22:17;14.73;;;9.82;;
19285;SDS011;9776;50.798;6.430;2024-03-08T10:24:46;15.85;;;9.93;;
19285;SDS011;9776;50.798;6.430;2024-03-08T10:27:14;16.65;;;10.63;;
19285;SDS011;9776;50.798;6.430;2024-03-08T10:29:43;14.20;;;10.23;;
19285;SDS011;9776;50.798;6.430;2024-03-08T10:32:14;16.70;;;9.82;;
19285;SDS011;9776;50.798;6.430;2024-03-08T10:34:41;15.23;;;10.10;;
19285;SDS011;9776;50.798;6.430;2024-03-08T10:37:12;17.45;;;10.40;;
19285;SDS011;9776;50.798;6.430;2024-03-08T10:39:44;15.88;;;10.02;;
19285;SDS011;9776;50.798;6.430;2024-03-08T10:42:20;16.35;;;10.07;;
19285;SDS011;9776;50.798;6.430;2024-03-08T10:44:57;14.98;;;10.13;;
19285;SDS011;9776;50.798;6.430;2024-03-08T10:47:33;17.00;;;10.70;;
19285;SDS011;9776;50.798;6.430;2024-03-08T10:50:08;15.45;;;10.00;;
19285;SDS011;9776;50.798;6.430;2024-03-08T10:52:39;16.35;;;10.25;;
19285;SDS011;9776;50.798;6.430;2024-03-08T10:55:08;15.68;;;10.50;;
19285;SDS011;9776;50.798;6.430;2024-03-08T10:57:39;14.98;;;10.30;;
19285;SDS011;9776;50.798;6.430;2024-03-08T11:00:08;14.30;;;9.25;;
19285;SDS011;9776;50.798;6.430;2024-03-08T11:02:37;17.33;;;10.55;;
19285;SDS011;9776;50.798;6.430;2024-03-08T11:05:06;14.55;;;10.00;;
19285;SDS011;9776;50.798;6.430;2024-03-08T11:07:40;17.00;;;10.07;;
19285;SDS011;9776;50.798;6.430;2024-03-08T11:10:18;14.85;;;9.40;;
19285;SDS011;9776;50.798;6.430;2024-03-08T11:12:46;16.58;;;10.35;;
19285;SDS011;9776;50.798;6.430;2024-03-08T11:15:13;13.85;;;9.38;;
19285;SDS011;9776;50.798;6.430;2024-03-08T11:17:47;15.23;;;10.35;;
19285;SDS011;9776;50.798;6.430;2024-03-08T11:20:15;14.80;;;9.73;;
19285;SDS011;9776;50.798;6.430;2024-03-08T11:22:47;16.63;;;9.90;;
19285;SDS011;9776;50.798;6.430;2024-03-08T11:25:34;13.80;;;9.52;;
19285;SDS011;9776;50.798;6.430;2024-03-08T11:28:11;14.88;;;10.15;;
19285;SDS011;9776;50.798;6.430;2024-03-08T11:30:42;14.00;;;9.50;;
19285;SDS011;9776;50.798;6.430;2024-03-08T11:33:13;15.15;;;9.98;;
19285;SDS011;9776;50.798;6.430;2024-03-08T11:35:42;14.90;;;9.73;;
19285;SDS011;9776;50.798;6.430;2024-03-08T11:38:11;15.30;;;9.68;;
19285;SDS011;9776;50.798;6.430;2024-03-08T11:40:41;15.02;;;10.07;;
19285;SDS011;9776;50.798;6.430;2024-03-08T11:43:08;15.45;;;10.05;;
19285;SDS011;9776;50.798;6.430;2024-03-08T11:45:36;14.90;;;9.65;;
19285;SDS011;9776;50.798;6.430;2024-03-08T11:48:03;14.20;;;9.43;;
19285;SDS011;9776;50.798;6.430;2024-03-08T11:50:31;13.73;;;9.00;;
19285;SDS011;9776;50.798;6.430;2024-03-08T11:53:02;13.02;;;9.25;;
19285;SDS011;9776;50.798;6.430;2024-03-08T11:55:30;15.07;;;9.90;;
19285;SDS011;9776;50.798;6.430;2024-03-08T11:58:05;13.75;;;9.50;;
19285;SDS011;9776;50.798;6.430;2024-03-08T12:00:33;14.82;;;9.65;;
19285;SDS011;9776;50.798;6.430;2024-03-08T12:03:03;15.15;;;9.23;;
19285;SDS011;9776;50.798;6.430;2024-03-08T12:05:31;13.73;;;9.05;;
19285;SDS011;9776;50.798;6.430;2024-03-08T12:07:59;12.73;;;9.00;;
19285;SDS011;9776;50.798;6.430;2024-03-08T12:10:30;13.30;;;9.48;;
19285;SDS011;9776;50.798;6.430;2024-03-08T12:12:57;13.45;;;9.13;;
19285;SDS011;9776;50.798;6.430;2024-03-08T12:15:27;14.25;;;8.98;;
19285;SDS011;9776;50.798;6.430;2024-03-08T12:17:58;12.73;;;8.68;;
19285;SDS011;9776;50.798;6.430;2024-03-08T12:20:26;12.38;;;8.80;;
19285;SDS011;9776;50.798;6.430;2024-03-08T12:22:55;14.10;;;9.27;;
19285;SDS011;9776;50.798;6.430;2024-03-08T12:25:25;14.05;;;8.82;;
19285;SDS011;9776;50.798;6.430;2024-03-08T12:27:56;12.80;;;8.90;;
19285;SDS011;9776;50.798;6.430;2024-03-08T12:30:37;13.88;;;8.98;;
19285;SDS011;9776;50.798;6.430;2024-03-08T12:33:12;14.40;;;9.55;;
19285;SDS011;9776;50.798;6.430;2024-03-08T12:35:49;12.10;;;8.15;;
19285;SDS011;9776;50.798;6.430;2024-03-08T12:38:20;14.00;;;8.50;;
19285;SDS011;9776;50.798;6.430;2024-03-08T12:40:50;12.25;;;8.68;;
19285;SDS011;9776;50.798;6.430;2024-03-08T12:43:22;13.00;;;8.55;;
19285;SDS011;9776;50.798;6.430;2024-03-08T12:45:50;12.98;;;8.57;;
19285;SDS011;9776;50.798;6.430;2024-03-08T12:48:20;15.25;;;8.52;;
19285;SDS011;9776;50.798;6.430;2024-03-08T12:50:47;14.25;;;9.13;;
19285;SDS011;9776;50.798;6.430;2024-03-08T12:53:16;11.20;;;8.40;;
19285;SDS011;9776;50.798;6.430;2024-03-08T12:55:43;13.82;;;8.68;;
19285;SDS011;9776;50.798;6.430;2024-03-08T12:58:11;11.80;;;8.05;;
19285;SDS011;9776;50.798;6.430;2024-03-08T13:00:41;12.00;;;8.50;;
19285;SDS011;9776;50.798;6.430;2024-03-08T13:03:10;12.05;;;8.73;;
19285;SDS011;9776;50.798;6.430;2024-03-08T13:05:40;10.85;;;7.85;;
19285;SDS011;9776;50.798;6.430;2024-03-08T13:08:10;11.60;;;7.78;;
19285;SDS011;9776;50.798;6.430;2024-03-08T13:10:41;12.18;;;7.90;;
19285;SDS011;9776;50.798;6.430;2024-03-08T13:13:09;11.85;;;7.95;;
19285;SDS011;9776;50.798;6.430;2024-03-08T13:15:37;12.30;;;8.35;;
19285;SDS011;9776;50.798;6.430;2024-03-08T13:18:04;11.52;;;7.45;;
19285;SDS011;9776;50.798;6.430;2024-03-08T13:20:35;10.57;;;7.68;;
19285;SDS011;9776;50.798;6.430;2024-03-08T13:23:03;11.82;;;8.23;;
19285;SDS011;9776;50.798;6.430;2024-03-08T13:25:30;11.73;;;7.68;;
19285;SDS011;9776;50.798;6.430;2024-03-08T13:27:58;12.13;;;7.95;;
19285;SDS011;9776;50.798;6.430;2024-03-08T13:30:27;11.13;;;7.28;;
19285;SDS011;9776;50.798;6.430;2024-03-08T13:32:55;9.93;;;7.38;;
19285;SDS011;9776;50.798;6.430;2024-03-08T13:35:22;14.07;;;7.50;;
19285;SDS011;9776;50.798;6.430;2024-03-08T13:37:53;15.15;;;8.10;;
19285;SDS011;9776;50.798;6.430;2024-03-08T13:40:21;12.80;;;7.80;;
19285;SDS011;9776;50.798;6.430;2024-03-08T13:42:48;12.45;;;7.88;;
19285;SDS011;9776;50.798;6.430;2024-03-08T13:45:16;13.55;;;7.85;;
19285;SDS011;9776;50.798;6.430;2024-03-08T13:47:47;11.38;;;7.65;;
19285;SDS011;9776;50.798;6.430;2024-03-08T13:50:16;14.43;;;7.97;;
19285;SDS011;9776;50.798;6.430;2024-03-08T13:52:46;15.23;;;8.23;;
19285;SDS011;9776;50.798;6.430;2024-03-08T13:55:16;13.07;;;8.10;;
19285;SDS011;9776;50.798;6.430;2024-03-08T13:57:43;12.35;;;8.20;;
19285;SDS011;9776;50.798;6.430;2024-03-08T14:00:12;12.10;;;7.72;;
19285;SDS011;9776;50.798;6.430;2024-03-08T14:02:40;13.63;;;8.15;;
19285;SDS011;9776;50.798;6.430;2024-03-08T14:05:08;15.85;;;7.82;;
19285;SDS011;9776;50.798;6.430;2024-03-08T14:07:36;13.63;;;8.15;;
19285;SDS011;9776;50.798;6.430;2024-03-08T14:10:04;12.20;;;7.88;;
19285;SDS011;9776;50.798;6.430;2024-03-08T14:12:33;13.93;;;7.97;;
19285;SDS011;9776;50.798;6.430;2024-03-08T14:15:00;13.15;;;7.63;;
19285;SDS011;9776;50.798;6.430;2024-03-08T14:17:29;15.02;;;8.25;;
19285;SDS011;9776;50.798;6.430;2024-03-08T14:19:57;13.60;;;8.10;;
19285;SDS011;9776;50.798;6.430;2024-03-08T14:22:24;13.10;;;8.23;;
19285;SDS011;9776;50.798;6.430;2024-03-08T14:24:51;14.32;;;8.75;;
19285;SDS011;9776;50.798;6.430;2024-03-08T14:27:20;13.27;;;8.18;;
19285;SDS011;9776;50.798;6.430;2024-03-08T14:29:49;12.48;;;8.18;;
19285;SDS011;9776;50.798;6.430;2024-03-08T14:32:16;14.05;;;7.80;;
19285;SDS011;9776;50.798;6.430;2024-03-08T14:34:45;12.85;;;7.72;;
19285;SDS011;9776;50.798;6.430;2024-03-08T14:37:17;12.50;;;7.88;;
19285;SDS011;9776;50.798;6.430;2024-03-08T14:39:48;13.88;;;8.48;;
19285;SDS011;9776;50.798;6.430;2024-03-08T14:42:17;12.52;;;7.53;;
19285;SDS011;9776;50.798;6.430;2024-03-08T14:44:45;14.82;;;8.20;;
19285;SDS011;9776;50.798;6.430;2024-03-08T14:47:17;14.38;;;8.38;;
19285;SDS011;9776;50.798;6.430;2024-03-08T14:49:44;13.55;;;7.75;;